Time;durP1;ratioP1;P1;durP2;ratioP2;P2;SDS_P1;SDS_P2;PMS_P1;PMS_P2;Temp;Humidity;BMP_temperature;BMP_pressure;BME280_temperature;BME280_humidity;BME280_pressure;Samples;Min_cycle;Max_cycle;Signal;HPM_P1;HPM_P2
2021/05/21 10:03:37;;;;;;;;;4.50;3.50;;;;;;;;3586185;39;112960;-76
2021/05/21 10:06:04;;;;;;;;;5.00;5.00;;;;;;;;3538277;39;1043065;-76
2021/05/21 10:08:30;;;;;;;;;6.50;5.75;;;;;;;;3565955;39;111933;-73
2021/05/21 10:10:56;;;;;;;;;9.00;4.25;;;;;;;;3567061;39;113110;-74
2021/05/21 10:13:22;;;;;;;;;4.00;4.00;;;;;;;;3565609;39;114131;-74
2021/05/21 10:15:50;;;;;;;;;6.00;4.50;;;;;;;;3566625;39;112142;-74
2021/05/21 10:18:16;;;;;;;;;5.75;5.50;;;;;;;;3566984;39;113260;-76
2021/05/21 10:20:43;;;;;;;;;4.75;4.75;;;;;;;;3564261;39;114151;-76
2021/05/21 10:23:11;;;;;;;;;2.00;2.00;;;;;;;;3569862;39;111824;-74
2021/05/21 10:25:38;;;;;;;;;3.00;3.00;;;;;;;;3565049;39;113885;-72
2021/05/21 10:28:05;;;;;;;;;2.00;2.00;;;;;;;;3565815;39;112167;-74
2021/05/21 10:30:34;;;;;;;;;4.25;3.00;;;;;;;;3567186;39;113514;-73
2021/05/21 10:33:12;;;;;;;;;4.50;2.75;;;;;;;;3565409;39;114015;-75
2021/05/21 10:35:39;;;;;;;;;5.25;4.25;;;;;;;;3564059;39;112466;-74
2021/05/21 10:38:19;;;;;;;;;3.00;3.00;;;;;;;;3562583;39;112345;-73
2021/05/21 10:40:45;;;;;;;;;2.00;2.00;;;;;;;;3567025;39;114079;-75
2021/05/21 10:43:14;;;;;;;;;2.00;2.00;;;;;;;;3565698;39;111799;-73
2021/05/21 10:45:52;;;;;;;;;1.67;1.00;;;;;;;;3569270;39;113255;-76
2021/05/21 10:48:24;;;;;;;;;7.75;7.75;;;;;;;;3566178;39;112032;-76
2021/05/21 10:51:06;;;;;;;;;17.25;15.50;;;;;;;;3566240;39;113383;-75
2021/05/21 10:53:33;;;;;;;;;5.25;5.25;;;;;;;;3565711;39;113816;-79
2021/05/21 10:56:03;;;;;;;;;1.00;1.00;;;;;;;;3515136;39;114161;-81
2021/05/21 10:58:31;;;;;;;;;1.67;1.67;;;;;;;;3556617;39;113457;-84
2021/05/21 11:01:12;;;;;;;;;0.00;0.00;;;;;;;;3555218;39;114199;-79
2021/05/21 11:03:53;;;;;;;;;1.00;1.00;;;;;;;;3555491;39;111945;-81
2021/05/21 11:06:22;;;;;;;;;1.00;0.50;;;;;;;;3555372;39;113291;-82
2021/05/21 11:08:49;;;;;;;;;1.25;1.25;;;;;;;;3557462;39;114193;-80
2021/05/21 11:11:15;;;;;;;;;2.75;1.00;;;;;;;;3556014;39;113576;-80
2021/05/21 11:13:41;;;;;;;;;1.00;1.00;;;;;;;;3553190;39;114220;-80
2021/05/21 11:16:11;;;;;;;;;2.00;1.00;;;;;;;;3548736;39;112365;-80
2021/05/21 11:18:46;;;;;;;;;2.00;1.00;;;;;;;;3546726;39;113501;-75
2021/05/21 11:21:17;;;;;;;;;2.50;2.50;;;;;;;;3548528;39;114711;-79
2021/05/21 11:23:55;;;;;;;;;1.50;1.50;;;;;;;;3550161;39;112041;-75
2021/05/21 11:26:25;;;;;;;;;1.67;1.67;;;;;;;;3546085;39;113533;-78
2021/05/21 11:28:54;;;;;;;;;1.25;1.25;;;;;;;;3547650;39;113905;-75
2021/05/21 11:31:22;;;;;;;;;1.00;1.00;;;;;;;;3549741;39;112027;-75
2021/05/21 11:33:50;;;;;;;;;1.00;1.00;;;;;;;;3547512;39;113879;-79
2021/05/21 11:36:17;;;;;;;;;1.75;1.75;;;;;;;;3548319;39;113855;-73
2021/05/21 11:38:43;;;;;;;;;2.00;1.00;;;;;;;;3548707;39;113332;-75
2021/05/21 11:41:11;;;;;;;;;1.00;1.00;;;;;;;;3545906;39;113937;-76
2021/05/21 11:43:40;;;;;;;;;2.00;1.00;;;;;;;;3545834;39;111918;-77
2021/05/21 11:46:11;;;;;;;;;1.00;1.00;;;;;;;;3548437;39;113320;-77
2021/05/21 11:48:38;;;;;;;;;1.75;1.75;;;;;;;;3548613;39;114062;-75
2021/05/21 11:51:09;;;;;;;;;1.50;1.50;;;;;;;;3549231;39;112126;-79
2021/05/21 11:53:45;;;;;;;;;1.00;1.00;;;;;;;;3549171;39;113443;-75
2021/05/21 11:56:11;;;;;;;;;3.00;2.00;;;;;;;;3549200;39;113324;-77
2021/05/21 11:58:38;;;;;;;;;1.00;1.00;;;;;;;;3547267;39;113271;-75
2021/05/21 12:01:06;;;;;;;;;1.00;1.00;;;;;;;;3545673;39;114035;-76
2021/05/21 12:03:33;;;;;;;;;1.00;1.00;;;;;;;;3547414;39;112152;-79
2021/05/21 12:05:59;;;;;;;;;1.25;1.25;;;;;;;;3550379;39;113300;-79
2021/05/21 12:08:26;;;;;;;;;1.00;1.00;;;;;;;;3548416;39;113829;-73
2021/05/21 12:10:56;;;;;;;;;1.25;1.25;;;;;;;;3549552;39;111789;-73
2021/05/21 12:13:25;;;;;;;;;2.75;1.25;;;;;;;;3549170;39;113521;-72
2021/05/21 12:15:51;;;;;;;;;1.00;1.00;;;;;;;;3549563;39;112214;-73
2021/05/21 12:18:18;;;;;;;;;1.00;1.00;;;;;;;;3549563;39;113354;-76
2021/05/21 12:20:53;;;;;;;;;0.50;0.00;;;;;;;;3549212;39;113988;-75
2021/05/21 12:23:30;;;;;;;;;0.50;0.50;;;;;;;;3550065;39;113518;-74
2021/05/21 12:25:56;;;;;;;;;0.00;0.00;;;;;;;;3549873;39;113090;-72
2021/05/21 12:28:22;;;;;;;;;1.00;1.00;;;;;;;;3548785;39;114055;-74
2021/05/21 12:30:49;;;;;;;;;3.00;1.00;;;;;;;;3548955;39;112277;-74
2021/05/21 12:33:15;;;;;;;;;2.00;1.00;;;;;;;;3549822;39;113409;-75
2021/05/21 12:35:44;;;;;;;;;1.50;1.50;;;;;;;;3550491;39;113349;-75
2021/05/21 12:38:10;;;;;;;;;1.00;1.00;;;;;;;;3550164;39;113775;-75
2021/05/21 12:40:48;;;;;;;;;0.00;0.00;;;;;;;;3546845;39;114790;-75
2021/05/21 12:43:16;;;;;;;;;0.75;0.75;;;;;;;;3547006;39;112304;-75
2021/05/21 12:45:52;;;;;;;;;1.00;1.00;;;;;;;;3548768;39;113116;-74
2021/05/21 12:48:18;;;;;;;;;1.75;1.75;;;;;;;;3547148;39;113945;-80
2021/05/21 12:50:45;;;;;;;;;2.00;2.00;;;;;;;;3547980;39;113446;-78
2021/05/21 12:53:13;;;;;;;;;3.25;2.00;;;;;;;;3545026;39;113264;-77
2021/05/21 12:55:44;;;;;;;;;1.50;1.50;;;;;;;;3546602;39;113925;-75
2021/05/21 12:58:15;;;;;;;;;3.00;2.25;;;;;;;;3553692;39;112129;-81
2021/05/21 13:00:41;;;;;;;;;1.00;1.00;;;;;;;;3548039;39;113910;-82
2021/05/21 13:03:08;;;;;;;;;3.00;1.00;;;;;;;;3550467;39;112267;-82
2021/05/21 13:05:34;;;;;;;;;2.00;2.00;;;;;;;;3544536;39;113478;-79
2021/05/21 13:08:04;;;;;;;;;6.75;5.75;;;;;;;;3545499;39;114130;-80
2021/05/21 13:10:37;;;;;;;;;8.50;6.25;;;;;;;;3549774;39;112200;-77
2021/05/21 13:13:03;;;;;;;;;5.75;5.00;;;;;;;;3547991;39;113726;-78
2021/05/21 13:15:30;;;;;;;;;4.50;4.50;;;;;;;;3549010;39;114002;-78
2021/05/21 13:17:57;;;;;;;;;6.25;5.00;;;;;;;;3548395;39;112667;-77
2021/05/21 13:20:24;;;;;;;;;1.00;1.00;;;;;;;;3551346;39;113795;-76
2021/05/21 13:22:51;;;;;;;;;3.00;3.00;;;;;;;;3548732;39;111866;-75
2021/05/21 13:25:19;;;;;;;;;1.25;1.00;;;;;;;;3548108;39;113231;-82
2021/05/21 13:27:47;;;;;;;;;0.00;0.00;;;;;;;;3548326;39;112849;-77
2021/05/21 13:30:14;;;;;;;;;1.00;1.00;;;;;;;;3549405;39;111868;-78
2021/05/21 13:32:41;;;;;;;;;0.00;0.00;;;;;;;;3548821;39;113620;-77
2021/05/21 13:35:08;;;;;;;;;1.75;1.50;;;;;;;;3549430;39;114195;-79
2021/05/21 13:37:35;;;;;;;;;0.00;0.00;;;;;;;;3547835;39;111897;-79
2021/05/21 13:40:01;;;;;;;;;3.00;3.00;;;;;;;;3549630;39;113196;-84
2021/05/21 13:42:30;;;;;;;;;3.00;0.00;;;;;;;;3550967;39;113916;-83
2021/05/21 13:44:56;;;;;;;;;1.50;1.50;;;;;;;;3549142;39;113259;-78
2021/05/21 13:47:22;;;;;;;;;0.00;0.00;;;;;;;;3548352;39;113802;-82
2021/05/21 13:49:48;;;;;;;;;15.00;13.00;;;;;;;;3548534;39;111885;-78
2021/05/21 13:52:14;;;;;;;;;3.50;3.50;;;;;;;;3549229;39;113753;-80
2021/05/21 13:55:25;;;;;;;;;0.75;0.50;;;;;;;;3572486;39;112355;-77
2021/05/21 13:57:51;;;;;;;;;3.00;0.00;;;;;;;;3565377;39;114027;-81
2021/05/21 14:00:17;;;;;;;;;3.00;0.75;;;;;;;;3567403;39;112097;-87
2021/05/21 14:02:46;;;;;;;;;10.25;9.25;;;;;;;;3567167;39;113406;-79
2021/05/21 14:05:12;;;;;;;;;4.50;3.25;;;;;;;;3577939;22;114297;-81
2021/05/21 14:07:38;;;;;;;;;4.50;4.50;;;;;;;;3547511;39;112142;-75
2021/05/21 14:10:05;;;;;;;;;10.00;9.25;;;;;;;;3545485;39;113475;-80
2021/05/21 14:12:35;;;;;;;;;5.00;5.00;;;;;;;;3546695;39;113831;-72
2021/05/21 14:15:01;;;;;;;;;37.00;29.50;;;;;;;;3547893;39;112019;-75
2021/05/21 14:17:27;;;;;;;;;7.75;7.00;;;;;;;;3545286;39;114454;-73
2021/05/21 14:19:53;;;;;;;;;11.50;10.25;;;;;;;;3543969;39;113097;-73
2021/05/21 14:22:21;;;;;;;;;4.00;3.50;;;;;;;;3545731;39;113637;-74
2021/05/21 14:24:47;;;;;;;;;3.00;2.00;;;;;;;;3545249;39;113731;-75
2021/05/21 14:27:14;;;;;;;;;2.00;2.00;;;;;;;;3546061;39;112391;-73
2021/05/21 14:29:41;;;;;;;;;2.75;2.75;;;;;;;;3545230;39;113386;-74
2021/05/21 14:32:07;;;;;;;;;1.00;1.00;;;;;;;;3546550;39;114357;-74
2021/05/21 14:34:33;;;;;;;;;0.75;0.75;;;;;;;;3545536;39;111941;-75
2021/05/21 14:36:59;;;;;;;;;2.00;2.00;;;;;;;;3549074;39;113242;-75
2021/05/21 14:39:25;;;;;;;;;1.00;1.00;;;;;;;;3546154;39;112147;-75
2021/05/21 14:41:51;;;;;;;;;1.75;1.75;;;;;;;;3546796;39;113574;-74
2021/05/21 14:44:18;;;;;;;;;2.25;2.00;;;;;;;;3546126;39;114685;-75
2021/05/21 14:46:45;;;;;;;;;3.25;1.50;;;;;;;;3545942;39;112252;-75
2021/05/21 14:49:11;;;;;;;;;3.00;1.50;;;;;;;;3546875;39;113136;-75
2021/05/21 14:51:38;;;;;;;;;3.50;2.00;;;;;;;;3545037;39;114057;-84
2021/05/21 14:54:04;;;;;;;;;1.00;1.00;;;;;;;;3545691;39;112380;-77
2021/05/21 14:56:30;;;;;;;;;2.25;2.25;;;;;;;;3547091;39;113333;-76
2021/05/21 14:58:56;;;;;;;;;2.00;2.00;;;;;;;;3547793;39;113988;-83
2021/05/21 15:01:23;;;;;;;;;2.00;2.00;;;;;;;;3546731;39;113317;-74
2021/05/21 15:03:52;;;;;;;;;3.00;3.00;;;;;;;;3545925;39;114285;-74
2021/05/21 15:06:18;;;;;;;;;5.00;2.00;;;;;;;;3540202;39;112139;-75
2021/05/21 15:08:44;;;;;;;;;2.75;2.75;;;;;;;;3539789;39;113027;-73
2021/05/21 15:11:10;;;;;;;;;3.00;3.00;;;;;;;;3540685;39;114938;-73
2021/05/21 15:13:38;;;;;;;;;2.00;2.00;;;;;;;;3538618;39;112573;-73
2021/05/21 15:16:09;;;;;;;;;1.75;1.75;;;;;;;;3539202;39;113298;-74
2021/05/21 15:21:46;;;;;;;;;5.50;2.50;;;;;;;;3542083;39;111752;-75
2021/05/21 15:24:24;;;;;;;;;4.50;3.25;;;;;;;;3538216;39;115039;-74
2021/05/21 15:26:50;;;;;;;;;5.75;3.75;;;;;;;;3539486;39;111968;-74
2021/05/21 15:29:17;;;;;;;;;2.00;2.00;;;;;;;;3539715;39;113202;-72
2021/05/21 15:31:43;;;;;;;;;5.00;4.00;;;;;;;;3538306;39;113917;-74
2021/05/21 15:34:11;;;;;;;;;4.00;2.50;;;;;;;;3539420;39;112360;-75
2021/05/21 15:36:39;;;;;;;;;4.00;2.75;;;;;;;;3538679;39;112965;-73
2021/05/21 15:39:06;;;;;;;;;4.00;4.00;;;;;;;;3538083;39;113831;-75
2021/05/21 15:41:34;;;;;;;;;3.00;3.00;;;;;;;;3539233;39;111897;-74
2021/05/21 15:46:46;;;;;;;;;2.25;2.00;;;;;;;;3538759;39;112610;-84
2021/05/21 15:49:16;;;;;;;;;1.00;1.00;;;;;;;;3539245;39;113381;-77
2021/05/21 15:51:46;;;;;;;;;3.00;1.50;;;;;;;;3539228;39;114243;-77
2021/05/21 15:54:24;;;;;;;;;3.25;1.50;;;;;;;;3537162;39;112341;-78
2021/05/21 15:57:11;;;;;;;;;3.00;1.00;;;;;;;;3537401;39;113983;-77
2021/05/21 15:59:38;;;;;;;;;1.00;0.75;;;;;;;;3537552;39;114012;-75
2021/05/21 16:02:05;;;;;;;;;4.75;2.00;;;;;;;;3538637;39;111840;-76
2021/05/21 16:04:31;;;;;;;;;3.25;1.75;;;;;;;;3537915;39;113467;-78
2021/05/21 16:06:58;;;;;;;;;0.25;0.25;;;;;;;;3540855;39;113025;-77
2021/05/21 16:09:24;;;;;;;;;2.00;2.00;;;;;;;;3537910;39;113198;-78
2021/05/21 16:11:51;;;;;;;;;2.00;1.00;;;;;;;;3538277;39;113880;-76
2021/05/21 16:14:17;;;;;;;;;3.25;2.00;;;;;;;;3537068;39;111980;-75
2021/05/21 16:16:43;;;;;;;;;4.75;2.00;;;;;;;;3538358;39;113794;-78
2021/05/21 16:19:10;;;;;;;;;2.50;2.50;;;;;;;;3537421;39;113798;-77
2021/05/21 16:21:36;;;;;;;;;2.00;1.00;;;;;;;;3536557;39;112370;-76
2021/05/21 16:24:04;;;;;;;;;4.50;3.00;;;;;;;;3534529;39;113036;-74
2021/05/21 16:26:31;;;;;;;;;1.00;1.00;;;;;;;;3542264;39;113783;-75
2021/05/21 16:28:58;;;;;;;;;1.75;1.75;;;;;;;;3537435;39;115475;-76
2021/05/21 16:31:27;;;;;;;;;2.25;1.00;;;;;;;;3536206;39;113869;-76
2021/05/21 16:33:53;;;;;;;;;1.00;1.00;;;;;;;;3535401;39;113431;-76
2021/05/21 16:36:19;;;;;;;;;1.00;1.00;;;;;;;;3536141;39;113173;-76
2021/05/21 16:38:45;;;;;;;;;2.00;2.00;;;;;;;;3535105;39;113932;-75
2021/05/21 16:41:16;;;;;;;;;2.50;1.25;;;;;;;;3537224;39;112841;-76
2021/05/21 16:43:43;;;;;;;;;3.75;1.75;;;;;;;;3537177;39;113466;-76
2021/05/21 16:46:10;;;;;;;;;5.50;1.75;;;;;;;;3536730;39;114029;-76
2021/05/21 16:48:36;;;;;;;;;3.25;2.00;;;;;;;;3542310;39;112084;-76
2021/05/21 16:51:03;;;;;;;;;4.00;1.75;;;;;;;;3534065;39;113682;-76
2021/05/21 16:53:33;;;;;;;;;4.50;2.00;;;;;;;;3534946;39;111881;-74
2021/05/21 16:56:00;;;;;;;;;3.00;2.00;;;;;;;;3539314;39;112282;-76
2021/05/21 16:58:27;;;;;;;;;3.00;1.75;;;;;;;;3535758;39;113678;-76
2021/05/21 17:00:53;;;;;;;;;2.50;2.00;;;;;;;;3537037;39;112436;-77
2021/05/21 17:03:19;;;;;;;;;4.50;2.00;;;;;;;;3538914;39;113550;-76
2021/05/21 17:05:45;;;;;;;;;2.00;2.00;;;;;;;;3537048;39;114333;-77
2021/05/21 17:08:11;;;;;;;;;1.50;1.50;;;;;;;;3538432;39;112116;-77
2021/05/21 17:10:38;;;;;;;;;2.00;1.00;;;;;;;;3542048;39;113975;-77
2021/05/21 17:13:06;;;;;;;;;2.50;2.00;;;;;;;;3538013;39;111967;-75
2021/05/21 17:15:44;;;;;;;;;1.00;1.00;;;;;;;;3538402;39;113220;-73
2021/05/21 17:42:52;;;;;;;;;4.00;2.25;;;;;;;;3523587;39;111950;-77
2021/05/21 17:45:26;;;;;;;;;3.00;2.00;;;;;;;;3537211;39;113149;-74
2021/05/21 17:47:56;;;;;;;;;3.00;2.00;;;;;;;;3538030;39;113803;-77
2021/05/21 17:53:12;;;;;;;;;3.75;3.00;;;;;;;;3537707;39;113402;-76
2021/05/21 17:55:56;;;;;;;;;1.00;1.00;;;;;;;;3536785;39;113996;-74
2021/05/21 18:09:45;;;;;;;;;4.00;2.50;;;;;;;;3557599;39;113941;-82
2021/05/21 18:12:21;;;;;;;;;3.00;3.00;;;;;;;;3558112;39;113958;-82
2021/05/21 19:02:17;;;;;;;;;3.25;3.25;;;;;;;;3557539;39;112611;-77
2021/05/21 19:04:44;;;;;;;;;3.00;2.00;;;;;;;;3556741;39;113359;-74
2021/05/21 19:07:21;;;;;;;;;4.00;3.00;;;;;;;;3557348;39;112424;-75
2021/05/21 19:09:52;;;;;;;;;4.00;4.00;;;;;;;;3555428;39;113320;-75
2021/05/21 19:17:43;;;;;;;;;3.00;3.00;;;;;;;;3548972;39;112763;-75
2021/05/21 19:20:12;;;;;;;;;2.00;2.00;;;;;;;;3549262;39;112310;-76
2021/05/21 19:22:47;;;;;;;;;2.75;2.75;;;;;;;;3550901;39;113438;-75
2021/05/21 19:25:13;;;;;;;;;2.50;2.00;;;;;;;;3553109;39;113870;-76
2021/05/21 19:27:40;;;;;;;;;6.00;4.75;;;;;;;;3553728;39;112538;-76
2021/05/21 19:30:13;;;;;;;;;3.00;1.25;;;;;;;;3554085;39;114132;-77
2021/05/21 19:32:52;;;;;;;;;4.50;3.50;;;;;;;;3551749;39;114146;-75
2021/05/21 19:38:35;;;;;;;;;4.75;4.00;;;;;;;;3554154;39;113917;-82
2021/05/21 19:46:51;;;;;;;;;1.50;1.00;;;;;;;;3552811;39;114436;-76
2021/05/21 20:11:52;;;;;;;;;4.00;3.00;;;;;;;;3551527;39;112268;-76
2021/05/21 20:14:18;;;;;;;;;2.00;2.00;;;;;;;;3552386;39;113437;-80
2021/05/21 20:16:49;;;;;;;;;2.00;2.00;;;;;;;;3552447;39;113861;-83
2021/05/21 20:19:15;;;;;;;;;4.50;2.50;;;;;;;;3553680;39;111968;-78
2021/05/21 20:21:42;;;;;;;;;2.25;2.00;;;;;;;;3554327;39;113443;-78
2021/05/21 20:24:08;;;;;;;;;5.00;3.00;;;;;;;;3555344;39;112087;-78
2021/05/21 20:26:35;;;;;;;;;3.00;3.00;;;;;;;;3554721;39;113745;-82
2021/05/21 20:29:06;;;;;;;;;2.25;2.00;;;;;;;;3549205;39;113663;-83
2021/05/21 20:32:05;;;;;;;;;1.50;1.50;;;;;;;;3552716;39;113484;-83
2021/05/21 20:40:18;;;;;;;;;3.00;2.75;;;;;;;;3552330;39;111884;-86
2021/05/21 21:01:57;;;;;;;;;2.75;1.75;;;;;;;;3554265;39;112091;-86
2021/05/21 21:04:37;;;;;;;;;3.25;1.75;;;;;;;;3554299;39;113635;-83
2021/05/21 21:07:06;;;;;;;;;4.00;3.00;;;;;;;;3554012;39;114027;-82
2021/05/21 21:09:39;;;;;;;;;3.50;3.50;;;;;;;;3556058;39;111984;-86
2021/05/21 21:12:13;;;;;;;;;2.75;1.75;;;;;;;;3552037;39;114059;-77
2021/05/21 21:15:01;;;;;;;;;3.75;1.25;;;;;;;;3551732;39;112282;-77
2021/05/21 21:20:29;;;;;;;;;3.50;2.25;;;;;;;;3529785;39;113502;-76
2021/05/21 21:31:24;;;;;;;;;2.75;2.00;;;;;;;;3535348;39;112346;-78
2021/05/21 21:34:37;;;;;;;;;1.75;1.00;;;;;;;;3552293;39;113380;-76
2021/05/21 21:43:01;;;;;;;;;2.00;2.00;;;;;;;;3550352;39;112738;-75
2021/05/21 21:45:44;;;;;;;;;1.75;1.75;;;;;;;;3550133;39;112035;-77
2021/05/21 21:48:44;;;;;;;;;1.50;1.00;;;;;;;;3546508;39;112406;-77
2021/05/21 21:53:56;;;;;;;;;1.00;1.00;;;;;;;;3547578;39;112258;-75
2021/05/21 21:56:35;;;;;;;;;1.00;1.00;;;;;;;;3548837;39;113231;-75
2021/05/21 21:59:04;;;;;;;;;2.00;1.00;;;;;;;;3551554;39;113897;-75
2021/05/21 22:01:37;;;;;;;;;2.00;2.00;;;;;;;;3549503;39;113351;-75
2021/05/21 22:04:07;;;;;;;;;3.00;1.00;;;;;;;;3548414;39;113883;-75
2021/05/21 22:06:54;;;;;;;;;3.25;0.75;;;;;;;;3548210;39;111819;-75
2021/05/21 22:15:19;;;;;;;;;2.00;2.00;;;;;;;;3516046;39;111963;-75
2021/05/21 22:20:45;;;;;;;;;2.75;2.00;;;;;;;;3532431;39;112828;-76
2021/05/21 22:23:25;;;;;;;;;1.00;1.00;;;;;;;;3550306;39;112570;-76
2021/05/21 22:25:52;;;;;;;;;0.25;0.25;;;;;;;;3547995;39;113844;-76
2021/05/21 22:28:18;;;;;;;;;1.00;1.00;;;;;;;;3548871;39;111928;-74
2021/05/21 22:30:45;;;;;;;;;0.25;0.25;;;;;;;;3547618;39;113710;-75
2021/05/21 22:33:11;;;;;;;;;2.00;1.00;;;;;;;;3548666;39;113928;-75
2021/05/21 22:35:37;;;;;;;;;3.00;3.00;;;;;;;;3547676;39;112277;-75
2021/05/21 22:38:04;;;;;;;;;1.00;1.00;;;;;;;;3548730;39;113511;-75
2021/05/21 22:40:31;;;;;;;;;4.25;1.00;;;;;;;;3547773;39;114010;-74
2021/05/21 22:42:57;;;;;;;;;1.50;0.25;;;;;;;;3551084;39;111924;-74
2021/05/21 22:45:24;;;;;;;;;2.00;0.00;;;;;;;;3548106;39;114020;-75
2021/05/21 22:47:50;;;;;;;;;2.00;2.00;;;;;;;;3549036;39;111851;-75
2021/05/21 22:50:16;;;;;;;;;0.00;0.00;;;;;;;;3550453;39;113354;-75
2021/05/21 22:52:42;;;;;;;;;1.50;1.00;;;;;;;;3548593;39;114254;-74
2021/05/21 22:55:09;;;;;;;;;2.00;1.00;;;;;;;;3548864;39;112142;-75
2021/05/21 22:57:37;;;;;;;;;1.75;1.00;;;;;;;;3550468;39;113201;-76
2021/05/21 23:00:03;;;;;;;;;1.00;1.00;;;;;;;;3548793;39;113915;-76
2021/05/21 23:02:29;;;;;;;;;1.75;1.75;;;;;;;;3550210;39;112215;-76
2021/05/21 23:04:55;;;;;;;;;3.00;1.00;;;;;;;;3550814;39;113293;-76
2021/05/21 23:07:21;;;;;;;;;2.00;0.00;;;;;;;;3549997;39;111861;-77
2021/05/21 23:09:47;;;;;;;;;3.25;1.00;;;;;;;;3549028;39;113255;-76
2021/05/21 23:12:13;;;;;;;;;3.00;1.00;;;;;;;;3549947;39;113866;-77
2021/05/21 23:14:41;;;;;;;;;1.00;1.00;;;;;;;;3549029;39;112002;-79
2021/05/21 23:17:07;;;;;;;;;1.50;1.00;;;;;;;;3550593;39;113956;-78
2021/05/21 23:19:33;;;;;;;;;1.75;1.00;;;;;;;;3548662;39;114092;-77
2021/05/21 23:21:59;;;;;;;;;2.00;2.00;;;;;;;;3550013;39;112163;-75
2021/05/21 23:24:26;;;;;;;;;2.75;1.00;;;;;;;;3550136;39;113608;-75
2021/05/21 23:26:52;;;;;;;;;3.00;2.00;;;;;;;;3552645;39;113871;-76
2021/05/21 23:29:18;;;;;;;;;2.00;2.00;;;;;;;;3550328;39;114194;-77
2021/05/21 23:31:45;;;;;;;;;3.75;2.00;;;;;;;;3549914;39;114075;-76
2021/05/21 23:34:11;;;;;;;;;1.25;1.00;;;;;;;;3553800;39;112246;-76
2021/05/21 23:36:37;;;;;;;;;1.00;1.00;;;;;;;;3553800;39;113214;-76
2021/05/21 23:39:04;;;;;;;;;0.50;0.50;;;;;;;;3550861;39;113971;-77
2021/05/21 23:41:30;;;;;;;;;0.75;0.75;;;;;;;;3549805;39;111837;-76
2021/05/21 23:43:56;;;;;;;;;1.00;1.00;;;;;;;;3549804;39;113520;-76
2021/05/21 23:46:22;;;;;;;;;1.00;1.00;;;;;;;;3548919;39;114406;-76
2021/05/21 23:48:49;;;;;;;;;1.50;0.75;;;;;;;;3553223;39;111885;-75
2021/05/21 23:51:15;;;;;;;;;1.00;1.00;;;;;;;;3549711;39;114627;-74
2021/05/21 23:53:41;;;;;;;;;1.00;1.00;;;;;;;;3550417;39;111796;-74
2021/05/21 23:56:07;;;;;;;;;2.25;2.00;;;;;;;;3548572;39;113485;-74
2021/05/21 23:58:33;;;;;;;;;1.00;1.00;;;;;;;;3551665;39;113956;-74
